createdAt,value
2023-03-17T00:01:54.111Z,4.40
2023-03-17T00:04:56.778Z,4.03
2023-03-17T00:08:10.587Z,4.00
2023-03-17T00:11:15.070Z,3.97
2023-03-17T00:14:19.819Z,3.60
2023-03-17T00:17:22.732Z,3.60
2023-03-17T00:20:31.530Z,3.87
2023-03-17T00:23:35.334Z,4.35
2023-03-17T00:26:38.085Z,4.57
2023-03-17T00:29:41.062Z,3.87
2023-03-17T00:32:45.370Z,4.05
2023-03-17T00:35:48.333Z,3.90
2023-03-17T00:38:52.666Z,3.90
2023-03-17T00:41:55.604Z,4.22
2023-03-17T00:44:58.135Z,3.90
2023-03-17T00:48:00.937Z,4.45
2023-03-17T00:51:03.349Z,3.95
2023-03-17T00:54:06.951Z,4.55
2023-03-17T00:57:10.779Z,4.70
2023-03-17T01:00:29.750Z,5.03
2023-03-17T01:03:33.074Z,4.70
2023-03-17T01:06:35.736Z,4.45
2023-03-17T01:09:38.372Z,4.40
2023-03-17T01:12:41.007Z,5.40
2023-03-17T01:15:49.045Z,4.47
2023-03-17T01:18:51.705Z,4.90
2023-03-17T01:21:54.134Z,5.32
2023-03-17T01:24:56.858Z,6.55
2023-03-17T01:28:00.450Z,6.43
2023-03-17T01:31:03.114Z,6.60
2023-03-17T01:34:06.291Z,6.60
2023-03-17T01:37:09.755Z,6.32
2023-03-17T01:40:17.361Z,7.10
2023-03-17T01:43:26.099Z,7.22
2023-03-17T01:46:34.230Z,7.50
2023-03-17T01:49:38.837Z,7.32
2023-03-17T01:52:41.693Z,6.20
2023-03-17T01:55:45.898Z,5.57
2023-03-17T01:58:52.080Z,6.68
2023-03-17T02:02:02.927Z,6.57
2023-03-17T02:05:08.284Z,6.12
2023-03-17T02:08:16.506Z,7.43
2023-03-17T02:11:19.699Z,7.35
2023-03-17T02:14:22.451Z,8.55
2023-03-17T02:17:27.368Z,8.90
2023-03-17T02:20:29.973Z,8.00
2023-03-17T02:23:32.692Z,8.57
2023-03-17T02:26:36.641Z,8.50
2023-03-17T02:29:39.544Z,7.82
2023-03-17T02:32:43.567Z,8.30
2023-03-17T02:35:47.865Z,8.20
2023-03-17T02:38:52.352Z,7.53
2023-03-17T02:41:55.029Z,8.05
2023-03-17T02:44:57.504Z,8.32
2023-03-17T06:57:12.213Z,6.68
2023-03-17T07:00:15.924Z,6.20
2023-03-17T07:03:18.334Z,6.15
2023-03-17T07:06:23.274Z,6.93
2023-03-17T07:09:25.652Z,6.28
2023-03-17T07:12:28.915Z,6.60
2023-03-17T07:15:35.968Z,6.10
2023-03-17T07:18:39.401Z,6.50
2023-03-17T07:21:42.126Z,7.18
2023-03-17T07:24:47.015Z,6.97
2023-03-17T07:27:49.827Z,7.00
2023-03-17T07:30:52.523Z,6.20
2023-03-17T07:33:56.949Z,7.25
2023-03-17T07:37:00.564Z,6.50
2023-03-17T07:40:02.967Z,6.87
2023-03-17T07:43:05.649Z,6.55
2023-03-17T07:46:08.612Z,6.17
2023-03-17T07:49:11.414Z,6.78
2023-03-17T07:52:13.841Z,7.80
2023-03-17T07:55:16.576Z,7.43
2023-03-17T07:58:18.969Z,7.53
2023-03-17T08:01:21.624Z,6.57
2023-03-17T08:04:24.299Z,6.75
2023-03-17T08:07:26.634Z,7.53
2023-03-17T08:10:29.866Z,7.82
2023-03-17T08:13:32.734Z,7.03
2023-03-17T08:16:35.463Z,6.63
2023-03-17T08:19:37.865Z,7.05
2023-03-17T08:22:41.495Z,7.25
2023-03-17T08:25:43.992Z,6.80
2023-03-17T08:28:47.369Z,5.90
2023-03-17T08:31:49.822Z,5.40
2023-03-17T08:34:55.587Z,5.72
2023-03-17T08:37:57.908Z,4.50
2023-03-17T08:41:06.808Z,3.70
2023-03-17T08:44:09.439Z,3.70
2023-03-17T08:47:12.103Z,3.07
2023-03-17T08:50:21.964Z,3.17
2023-03-17T08:53:25.293Z,3.30
2023-03-17T08:56:27.846Z,2.92
2023-03-17T08:59:30.537Z,2.83
2023-03-17T09:02:32.929Z,3.10
2023-03-17T09:05:38.471Z,4.53
2023-03-17T09:08:45.044Z,2.58
2023-03-17T09:11:47.874Z,2.75
2023-03-17T09:14:50.526Z,3.53
2023-03-17T09:17:53.978Z,3.00
2023-03-17T09:20:56.504Z,3.47
2023-03-17T09:24:02.138Z,3.00
2023-03-17T09:27:05.642Z,3.33
2023-03-17T09:30:13.634Z,3.33
2023-03-17T09:33:17.692Z,3.30
2023-03-17T09:36:20.577Z,3.05
2023-03-17T09:39:24.208Z,3.58
2023-03-17T09:42:27.107Z,2.92
2023-03-17T09:45:38.759Z,2.90
2023-03-17T09:49:03.895Z,2.30
2023-03-17T09:52:13.706Z,2.78
2023-03-17T09:55:27.757Z,2.70
2023-03-17T09:58:33.375Z,3.05
2023-03-17T10:01:40.173Z,3.15
2023-03-17T10:04:44.988Z,3.00
2023-03-17T10:07:58.126Z,3.75
2023-03-17T10:11:16.192Z,3.20
2023-03-17T10:14:41.948Z,3.03
2023-03-17T10:17:44.813Z,3.33
2023-03-17T10:20:55.043Z,3.13
2023-03-17T10:23:58.301Z,3.45
2023-03-17T10:27:06.466Z,3.97
2023-03-17T10:30:17.621Z,3.92
2023-03-17T10:33:20.224Z,3.40
2023-03-17T10:36:44.996Z,3.50
2023-03-17T10:39:53.071Z,3.05
2023-03-17T10:43:08.122Z,3.45
2023-03-17T10:46:20.307Z,3.10
2023-03-17T10:49:25.098Z,3.03
2023-03-17T10:52:31.309Z,3.33
2023-03-17T10:55:44.783Z,2.67
2023-03-17T10:58:49.900Z,3.53
2023-03-17T11:02:00.924Z,3.62
2023-03-17T11:05:05.994Z,2.85
2023-03-17T11:08:19.822Z,3.20
2023-03-17T11:11:26.205Z,3.35
2023-03-17T11:14:29.115Z,2.95
2023-03-17T11:17:56.253Z,3.35
2023-03-17T11:21:01.495Z,3.80
2023-03-17T11:24:14.239Z,2.77
2023-03-17T11:27:53.313Z,2.97
2023-03-17T11:31:13.106Z,3.20
2023-03-17T11:34:29.028Z,3.50
2023-03-17T11:37:37.520Z,3.45
2023-03-17T11:41:06.514Z,3.20
2023-03-17T11:44:28.913Z,3.53
2023-03-17T11:47:37.444Z,3.20
2023-03-17T11:50:51.961Z,3.80
2023-03-17T11:54:26.733Z,3.70
2023-03-17T11:57:44.939Z,3.10
2023-03-17T12:00:54.464Z,3.45
2023-03-17T12:04:39.250Z,3.83
2023-03-17T12:08:02.110Z,3.33
2023-03-17T12:11:12.445Z,3.70
2023-03-17T12:14:33.395Z,4.07
2023-03-17T12:17:52.588Z,3.20
2023-03-17T12:21:01.827Z,3.62
2023-03-17T12:24:17.304Z,3.95
2023-03-17T12:27:33.424Z,4.22
2023-03-17T12:31:06.027Z,3.20
2023-03-17T12:34:21.920Z,3.58
2023-03-17T12:37:27.712Z,3.83
2023-03-17T12:40:43.157Z,4.10
2023-03-17T12:44:18.949Z,3.83
2023-03-17T12:48:02.136Z,3.27
2023-03-17T12:51:29.882Z,3.17
2023-03-17T12:54:37.540Z,3.80
2023-03-17T12:57:43.722Z,3.55
2023-03-17T13:00:55.461Z,3.47
2023-03-17T13:04:00.989Z,3.77
2023-03-17T13:07:26.874Z,3.97
2023-03-17T13:10:48.582Z,3.53
2023-03-17T13:13:54.485Z,3.47
2023-03-17T13:17:05.203Z,3.87
2023-03-17T13:20:07.512Z,3.83
2023-03-17T13:23:10.261Z,3.35
2023-03-17T13:26:21.214Z,3.33
2023-03-17T13:29:45.546Z,3.67
2023-03-17T13:33:19.761Z,3.70
2023-03-17T13:36:25.573Z,3.40
2023-03-17T13:40:10.718Z,3.40
2023-03-17T13:43:37.106Z,3.65
2023-03-17T13:46:40.198Z,3.87
2023-03-17T13:49:48.429Z,3.72
2023-03-17T13:53:02.824Z,3.07
2023-03-17T13:56:14.641Z,3.62
2023-03-17T13:59:18.265Z,4.00
2023-03-17T14:02:23.913Z,3.72
2023-03-17T14:05:30.682Z,3.87
2023-03-17T14:08:38.961Z,3.30
2023-03-17T14:11:45.996Z,3.60
2023-03-17T14:15:22.651Z,3.78
2023-03-17T14:18:35.527Z,3.75
2023-03-17T14:21:37.938Z,3.72
2023-03-17T14:24:40.557Z,4.23
2023-03-17T14:27:44.800Z,3.90
2023-03-17T14:30:56.485Z,3.62
2023-03-17T14:34:00.929Z,3.53
2023-03-17T14:37:05.182Z,4.70
2023-03-17T14:40:22.568Z,3.60
2023-03-17T14:43:25.455Z,3.95
2023-03-17T14:46:37.296Z,3.85
2023-03-17T14:49:40.834Z,4.22
2023-03-17T14:52:44.047Z,3.67
2023-03-17T14:55:46.807Z,3.57
2023-03-17T14:58:51.588Z,3.67
2023-03-17T15:01:56.833Z,4.18
2023-03-17T15:05:13.148Z,4.15
2023-03-17T15:08:43.399Z,4.03
2023-03-17T15:11:47.690Z,4.13
2023-03-17T15:14:53.537Z,3.90
2023-03-17T15:17:58.263Z,3.95
2023-03-17T15:21:01.193Z,4.47
2023-03-17T15:24:41.509Z,4.40
2023-03-17T15:27:45.349Z,3.63
2023-03-17T15:30:51.070Z,3.60
2023-03-17T15:33:53.907Z,4.00
2023-03-17T15:36:57.651Z,3.60
2023-03-17T15:40:03.327Z,4.10
2023-03-17T15:43:06.001Z,3.80
2023-03-17T15:46:22.310Z,3.78
2023-03-17T15:49:26.900Z,4.55
2023-03-17T15:52:29.955Z,5.70
2023-03-17T15:55:32.955Z,4.78
2023-03-17T15:58:35.832Z,4.33
2023-03-17T16:01:39.645Z,4.87
2023-03-17T16:04:42.302Z,5.43
2023-03-17T16:07:45.326Z,4.25
2023-03-17T16:10:48.370Z,5.32
2023-03-17T16:13:50.851Z,4.53
2023-03-17T16:16:53.768Z,4.70
2023-03-17T16:19:57.205Z,4.35
2023-03-17T16:23:07.648Z,4.55
2023-03-17T16:26:15.951Z,4.12
2023-03-17T16:29:21.330Z,4.47
2023-03-17T16:32:23.813Z,4.10
2023-03-17T16:35:26.785Z,4.90
2023-03-17T16:38:34.202Z,3.92
2023-03-17T16:41:36.978Z,4.85
2023-03-17T16:44:39.395Z,4.67
2023-03-17T16:47:42.196Z,4.57
2023-03-17T16:50:44.603Z,4.87
2023-03-17T16:53:47.360Z,4.03
2023-03-17T16:56:49.787Z,4.07
2023-03-17T16:59:52.969Z,5.17
2023-03-17T17:02:55.744Z,6.45
2023-03-17T17:05:58.480Z,4.07
2023-03-17T17:09:00.910Z,4.50
2023-03-17T17:12:03.875Z,4.35
2023-03-17T17:15:07.346Z,4.20
2023-03-17T17:18:14.479Z,5.05
2023-03-17T17:21:17.119Z,4.90
2023-03-17T17:24:19.838Z,4.20
2023-03-17T17:27:22.219Z,4.28
2023-03-17T17:30:28.281Z,4.73
2023-03-17T17:33:30.641Z,4.97
2023-03-17T17:36:33.423Z,6.55
2023-03-17T17:39:35.789Z,5.22
2023-03-17T17:42:38.567Z,5.18
2023-03-17T17:45:42.464Z,5.10
2023-03-17T17:48:45.767Z,4.60
2023-03-17T17:51:48.082Z,5.65
2023-03-17T17:54:51.111Z,5.82
2023-03-17T17:57:53.528Z,4.87
2023-03-17T18:00:57.301Z,5.43
2023-03-17T18:04:00.115Z,4.93
2023-03-17T18:07:02.517Z,5.72
2023-03-17T18:10:06.170Z,5.28
2023-03-17T18:13:08.774Z,5.40
2023-03-17T18:16:16.279Z,5.80
2023-03-17T18:19:18.617Z,6.00
2023-03-17T18:22:21.762Z,5.43
2023-03-17T18:25:27.213Z,5.00
2023-03-17T18:28:30.175Z,5.30
2023-03-17T18:31:39.823Z,5.37
2023-03-17T18:34:47.958Z,5.45
2023-03-17T18:37:50.950Z,5.53
2023-03-17T18:40:53.674Z,5.90
2023-03-17T18:43:56.192Z,5.65
2023-03-17T18:46:59.009Z,5.17
2023-03-17T18:50:01.386Z,6.07
2023-03-17T18:53:04.147Z,6.00
2023-03-17T18:56:07.480Z,5.40
2023-03-17T18:59:10.337Z,5.80
2023-03-17T19:02:12.920Z,6.30
2023-03-17T19:05:16.143Z,6.22
2023-03-17T19:08:19.724Z,6.32
2023-03-17T19:11:22.469Z,6.25
2023-03-17T19:14:24.928Z,5.95
2023-03-17T19:17:28.352Z,6.27
2023-03-17T19:20:31.759Z,6.12
2023-03-17T19:23:35.970Z,6.97
2023-03-17T19:26:38.328Z,6.07
2023-03-17T19:29:41.012Z,7.43
2023-03-17T19:32:43.451Z,6.70
2023-03-17T19:35:46.125Z,7.12
2023-03-17T19:38:49.905Z,7.35
2023-03-17T19:41:55.242Z,7.70
2023-03-17T19:44:57.681Z,8.45
2023-03-17T19:48:00.421Z,8.00
2023-03-17T19:51:03.379Z,7.12
2023-03-17T19:54:08.056Z,8.02
2023-03-17T19:57:12.265Z,7.90
2023-03-17T20:00:15.445Z,9.98
2023-03-17T20:03:18.373Z,8.20
2023-03-17T20:06:20.821Z,7.60
2023-03-17T20:09:26.191Z,7.68
2023-03-17T20:12:31.123Z,8.10
2023-03-17T20:15:33.904Z,8.48
2023-03-17T20:18:36.504Z,7.70
2023-03-17T20:21:39.212Z,8.43
2023-03-17T20:24:42.146Z,7.53
2023-03-17T20:27:44.938Z,6.53
2023-03-17T20:30:48.265Z,7.15
2023-03-17T20:33:51.096Z,7.27
2023-03-17T20:36:53.720Z,8.07
2023-03-17T20:39:57.490Z,6.85
2023-03-17T20:42:59.990Z,6.97
2023-03-17T20:46:05.799Z,8.05
2023-03-17T20:49:09.096Z,7.03
2023-03-17T20:52:14.432Z,7.85
2023-03-17T20:55:17.701Z,7.82
2023-03-17T20:58:20.450Z,7.28
2023-03-17T21:01:24.062Z,16.40
2023-03-17T21:04:26.877Z,8.27
2023-03-17T21:07:29.365Z,9.10
2023-03-17T21:10:32.144Z,7.80
2023-03-17T21:13:35.416Z,7.47
2023-03-17T21:16:38.656Z,6.90
2023-03-17T21:19:41.792Z,7.73
2023-03-17T21:22:46.068Z,7.25
2023-03-17T21:25:52.759Z,7.18
2023-03-17T21:28:56.558Z,7.90
2023-03-17T21:32:01.112Z,7.30
2023-03-17T21:35:04.660Z,8.13
2023-03-17T21:38:07.209Z,7.65
2023-03-17T21:41:42.186Z,8.68
2023-03-17T21:44:45.828Z,6.60
2023-03-17T21:47:49.159Z,8.35
2023-03-17T21:50:51.565Z,7.60
2023-03-17T21:53:54.312Z,6.93
2023-03-17T21:56:57.171Z,7.32
2023-03-17T22:00:00.678Z,7.50
2023-03-17T22:03:04.276Z,6.97
2023-03-17T22:06:07.417Z,7.70
2023-03-17T22:09:11.044Z,7.45
2023-03-17T22:12:13.957Z,7.35
2023-03-17T22:15:16.355Z,8.13
2023-03-17T22:18:19.074Z,8.18
2023-03-17T22:21:21.682Z,7.87
2023-03-17T22:24:25.524Z,8.40
2023-03-17T22:27:27.869Z,7.95
2023-03-17T22:30:30.881Z,7.90
2023-03-17T22:33:33.605Z,7.75
2023-03-17T22:36:37.453Z,7.50
2023-03-17T22:39:39.871Z,7.95
2023-03-17T22:42:42.682Z,8.32
2023-03-17T22:45:45.150Z,7.28
2023-03-17T22:48:48.340Z,7.72
2023-03-17T22:51:50.885Z,7.03
2023-03-17T22:54:53.545Z,7.47
2023-03-17T22:57:55.991Z,7.50
2023-03-17T23:00:58.932Z,7.20
2023-03-17T23:04:02.026Z,7.65
2023-03-17T23:07:05.600Z,6.03
2023-03-17T23:10:09.080Z,5.93
2023-03-17T23:13:12.813Z,6.82
2023-03-17T23:16:15.664Z,7.35
2023-03-17T23:19:18.458Z,7.85
2023-03-17T23:22:21.441Z,7.63
2023-03-17T23:25:24.167Z,7.18
2023-03-17T23:28:27.304Z,8.30
2023-03-17T23:31:30.309Z,10.40
2023-03-17T23:34:32.949Z,8.00
2023-03-17T23:37:36.222Z,7.40
2023-03-17T23:40:39.738Z,6.45
2023-03-17T23:43:42.416Z,7.40
2023-03-17T23:46:45.240Z,7.43
2023-03-17T23:49:48.012Z,6.87
2023-03-17T23:52:50.579Z,5.97
2023-03-17T23:55:54.425Z,5.95
2023-03-17T23:58:57.069Z,6.72
